createdAt,value
2017-06-23T00:00:02.360Z,18.55
2017-06-23T00:01:02.981Z,18.45
2017-06-23T00:02:03.599Z,18.45
2017-06-23T00:03:04.221Z,18.53
2017-06-23T00:04:04.840Z,18.49
2017-06-23T00:05:05.537Z,18.45
2017-06-23T00:06:06.143Z,18.55
2017-06-23T00:07:06.770Z,18.55
2017-06-23T00:08:07.392Z,18.55
2017-06-23T00:09:08.010Z,18.52
2017-06-23T00:10:08.681Z,18.59
2017-06-23T00:11:09.302Z,18.59
2017-06-23T00:12:09.926Z,18.62
2017-06-23T00:13:10.543Z,18.59
2017-06-23T00:14:11.163Z,18.60
2017-06-23T00:15:11.834Z,18.53
2017-06-23T00:16:12.488Z,18.56
2017-06-23T00:17:13.106Z,18.56
2017-06-23T00:18:13.727Z,18.52
2017-06-23T00:19:14.346Z,18.58
2017-06-23T00:20:15.015Z,18.59
2017-06-23T00:21:15.637Z,18.55
2017-06-23T00:22:16.258Z,18.53
2017-06-23T00:23:16.877Z,18.56
2017-06-23T00:24:17.499Z,18.59
2017-06-23T00:25:18.168Z,18.53
2017-06-23T00:26:18.788Z,18.59
2017-06-23T00:27:19.434Z,18.63
2017-06-23T00:28:20.041Z,18.56
2017-06-23T00:29:20.664Z,18.52
2017-06-23T00:30:21.332Z,18.55
2017-06-23T00:31:21.951Z,18.58
2017-06-23T00:32:22.570Z,18.49
2017-06-23T00:33:23.218Z,18.45
2017-06-23T00:34:23.879Z,18.52
2017-06-23T00:35:24.552Z,18.55
2017-06-23T00:36:25.168Z,18.49
2017-06-23T00:37:25.787Z,18.38
2017-06-23T00:38:26.406Z,18.40
2017-06-23T00:39:27.028Z,18.45
2017-06-23T00:40:27.696Z,18.45
2017-06-23T00:41:28.318Z,18.44
2017-06-23T00:42:28.936Z,18.40
2017-06-23T00:43:29.561Z,18.44
2017-06-23T00:44:30.178Z,18.35
2017-06-23T00:45:30.798Z,18.34
2017-06-23T00:46:31.418Z,18.34
2017-06-23T00:47:32.071Z,18.37
2017-06-23T00:48:32.692Z,18.34
2017-06-23T00:49:33.312Z,18.31
2017-06-23T00:50:34.015Z,18.44
2017-06-23T00:51:34.635Z,18.35
2017-06-23T00:52:35.256Z,18.40
2017-06-23T00:53:35.905Z,18.49
2017-06-23T00:54:36.511Z,18.40
2017-06-23T00:55:37.215Z,18.49
2017-06-23T00:56:37.834Z,18.43
2017-06-23T00:57:38.460Z,18.44
2017-06-23T00:58:39.077Z,18.47
2017-06-23T00:59:39.697Z,18.49
2017-06-23T01:00:40.370Z,18.33
2017-06-23T01:01:40.985Z,18.45
2017-06-23T01:02:41.631Z,18.47
2017-06-23T01:03:42.238Z,18.37
2017-06-23T01:04:42.859Z,18.38
2017-06-23T01:05:43.528Z,18.37
2017-06-23T01:06:44.151Z,18.35
2017-06-23T01:07:44.803Z,18.25
2017-06-23T01:08:45.406Z,18.29
2017-06-23T01:09:46.054Z,18.28
2017-06-23T01:10:46.710Z,18.22
2017-06-23T01:11:47.331Z,18.37
2017-06-23T01:12:47.950Z,18.28
2017-06-23T01:13:48.596Z,18.29
2017-06-23T01:14:49.205Z,18.26
2017-06-23T01:15:49.873Z,18.26
2017-06-23T01:16:50.493Z,18.25
2017-06-23T01:17:51.146Z,18.22
2017-06-23T01:18:51.766Z,18.25
2017-06-23T01:19:52.393Z,18.20
2017-06-23T01:20:53.063Z,18.28
2017-06-23T01:21:53.707Z,18.25
2017-06-23T01:22:54.326Z,18.16
2017-06-23T01:23:54.945Z,18.10
2017-06-23T01:24:55.597Z,18.11
2017-06-23T01:25:56.273Z,18.11
2017-06-23T01:26:56.890Z,18.15
2017-06-23T01:27:57.512Z,18.05
2017-06-23T01:28:58.130Z,18.03
2017-06-23T01:29:58.751Z,17.95
2017-06-23T01:30:59.419Z,17.92
2017-06-23T01:32:00.040Z,17.94
2017-06-23T01:33:00.691Z,17.92
2017-06-23T01:34:01.347Z,17.86
2017-06-23T01:35:01.965Z,17.90
2017-06-23T01:36:02.637Z,18.00
2017-06-23T01:37:03.254Z,17.98
2017-06-23T01:38:03.874Z,18.05
2017-06-23T01:39:04.493Z,18.05
2017-06-23T01:40:05.138Z,18.16
2017-06-23T01:41:05.795Z,18.08
2017-06-23T01:42:06.413Z,18.10
2017-06-23T01:43:07.033Z,18.13
2017-06-23T01:44:07.679Z,18.16
2017-06-23T01:45:08.285Z,18.19
2017-06-23T01:46:08.991Z,18.08
2017-06-23T01:47:09.615Z,18.16
2017-06-23T01:48:10.230Z,18.13
2017-06-23T01:49:10.857Z,18.19
2017-06-23T01:50:11.474Z,18.16
2017-06-23T01:51:12.145Z,18.16
2017-06-23T01:52:12.765Z,18.10
2017-06-23T01:53:13.419Z,18.10
2017-06-23T01:54:14.063Z,18.11
2017-06-23T01:55:14.670Z,18.07
2017-06-23T01:56:15.340Z,18.04
2017-06-23T01:57:15.966Z,18.01
2017-06-23T01:58:16.582Z,18.03
2017-06-23T01:59:17.203Z,17.98
2017-06-23T02:00:17.825Z,18.03
2017-06-23T02:01:18.492Z,18.04
2017-06-23T02:02:19.111Z,18.00
2017-06-23T02:03:19.757Z,18.08
2017-06-23T02:04:20.391Z,18.01
2017-06-23T02:05:20.995Z,18.08
2017-06-23T02:06:21.665Z,17.97
2017-06-23T02:07:22.318Z,17.98
2017-06-23T02:08:22.939Z,17.95
2017-06-23T02:09:23.558Z,17.90
2017-06-23T02:10:24.182Z,17.92
2017-06-23T02:11:24.850Z,17.87
2017-06-23T02:12:25.468Z,17.79
2017-06-23T02:13:26.095Z,17.80
2017-06-23T02:14:26.712Z,17.72
2017-06-23T02:15:27.330Z,17.70
2017-06-23T02:16:28.002Z,17.65
2017-06-23T02:17:28.625Z,17.59
2017-06-23T02:18:29.242Z,17.56
2017-06-23T02:19:29.865Z,17.48
2017-06-23T02:20:30.510Z,17.51
2017-06-23T02:21:31.165Z,17.51
2017-06-23T02:22:31.791Z,17.46
2017-06-23T02:23:32.431Z,17.42
2017-06-23T02:24:33.038Z,17.42
2017-06-23T02:25:33.656Z,17.39
2017-06-23T02:26:34.359Z,17.36
2017-06-23T02:27:34.979Z,17.38
2017-06-23T02:28:35.598Z,17.29
2017-06-23T02:29:36.217Z,17.38
2017-06-23T02:30:36.839Z,17.34
2017-06-23T02:31:37.507Z,17.42
2017-06-23T02:32:38.154Z,17.41
2017-06-23T02:33:38.758Z,17.38
2017-06-23T02:34:39.377Z,17.45
2017-06-23T02:35:39.995Z,17.44
2017-06-23T02:36:40.664Z,17.46
2017-06-23T02:37:41.283Z,17.46
2017-06-23T02:38:41.944Z,17.48
2017-06-23T02:39:42.559Z,17.59
2017-06-23T02:40:43.183Z,17.57
2017-06-23T02:41:43.887Z,17.63
2017-06-23T02:42:44.506Z,17.60
2017-06-23T02:43:45.158Z,17.67
2017-06-23T02:44:45.778Z,17.71
2017-06-23T02:45:46.397Z,17.71
2017-06-23T02:46:47.017Z,17.60
2017-06-23T02:47:47.637Z,17.65
2017-06-23T02:48:48.261Z,17.70
2017-06-23T02:49:48.877Z,17.72
2017-06-23T02:50:49.530Z,17.78
2017-06-23T02:51:50.199Z,17.76
2017-06-23T02:52:50.818Z,17.83
2017-06-23T02:53:51.438Z,17.86
2017-06-23T02:54:52.120Z,17.94
2017-06-23T02:55:52.727Z,17.90
2017-06-23T02:56:53.395Z,17.90
2017-06-23T02:57:54.016Z,18.00
2017-06-23T02:58:54.635Z,18.01
2017-06-23T02:59:55.253Z,17.95
2017-06-23T03:00:55.899Z,17.92
2017-06-23T03:01:56.554Z,17.95
2017-06-23T03:02:57.235Z,17.87
2017-06-23T03:03:57.868Z,17.87
2017-06-23T03:04:58.474Z,17.78
2017-06-23T03:05:59.095Z,17.82
2017-06-23T03:06:59.765Z,17.90
2017-06-23T03:08:00.383Z,17.86
2017-06-23T03:09:01.002Z,17.76
2017-06-23T03:10:01.663Z,17.76
2017-06-23T03:11:02.278Z,17.76
2017-06-23T03:12:02.954Z,17.70
2017-06-23T03:13:03.568Z,17.67
2017-06-23T03:14:04.188Z,17.71
2017-06-23T03:15:04.806Z,17.67
2017-06-23T03:16:05.424Z,17.70
2017-06-23T03:17:06.093Z,17.60
2017-06-23T03:18:06.713Z,17.60
2017-06-23T03:19:07.337Z,17.54
2017-06-23T03:20:07.955Z,17.48
2017-06-23T03:21:08.600Z,17.39
2017-06-23T03:22:09.258Z,17.38
2017-06-23T03:23:09.882Z,17.30
2017-06-23T03:24:10.498Z,17.27
2017-06-23T03:25:11.144Z,17.26
2017-06-23T03:26:11.750Z,17.20
2017-06-23T03:27:12.419Z,17.15
2017-06-23T03:28:13.036Z,17.24
2017-06-23T03:29:13.656Z,17.22
2017-06-23T03:30:14.275Z,17.22
2017-06-23T03:31:14.896Z,17.22
2017-06-23T03:32:15.565Z,17.26
2017-06-23T03:33:16.184Z,17.27
2017-06-23T03:34:16.834Z,17.26
2017-06-23T03:35:17.436Z,17.24
2017-06-23T03:36:18.055Z,17.30
2017-06-23T03:37:18.724Z,17.24
2017-06-23T03:38:19.348Z,17.29
2017-06-23T03:39:19.965Z,17.30
2017-06-23T03:40:20.619Z,17.31
2017-06-23T03:41:21.241Z,17.22
2017-06-23T03:42:21.915Z,17.31
2017-06-23T03:43:22.530Z,17.22
2017-06-23T03:44:23.150Z,17.24
2017-06-23T03:45:23.768Z,17.26
2017-06-23T03:46:24.394Z,17.26
2017-06-23T03:47:25.098Z,17.22
2017-06-23T03:48:25.722Z,17.20
2017-06-23T03:49:26.343Z,17.30
2017-06-23T03:50:26.960Z,17.26
2017-06-23T03:51:27.580Z,17.27
2017-06-23T03:52:28.249Z,17.23
2017-06-23T03:53:28.874Z,17.30
2017-06-23T03:54:29.491Z,17.29
2017-06-23T03:55:30.110Z,17.31
2017-06-23T03:56:30.764Z,17.31
2017-06-23T03:57:31.418Z,17.34
2017-06-23T03:58:32.097Z,17.33
2017-06-23T03:59:32.750Z,17.36
2017-06-23T04:00:33.371Z,17.30
2017-06-23T04:01:33.990Z,17.31
2017-06-23T04:02:34.695Z,17.33
2017-06-23T04:03:35.314Z,17.38
2017-06-23T04:04:35.942Z,17.36
2017-06-23T04:05:36.595Z,17.41
2017-06-23T04:06:37.242Z,17.42
2017-06-23T04:07:37.898Z,17.38
2017-06-23T04:08:38.546Z,17.44
2017-06-23T04:09:39.152Z,17.42
2017-06-23T04:10:39.771Z,17.46
2017-06-23T04:11:40.392Z,17.48
2017-06-23T04:12:41.096Z,17.52
2017-06-23T04:13:41.732Z,17.63
2017-06-23T04:14:42.359Z,17.65
2017-06-23T04:15:42.989Z,17.68
2017-06-23T04:16:43.596Z,17.68
2017-06-23T04:17:44.267Z,17.65
2017-06-23T04:18:44.888Z,17.70
2017-06-23T04:19:45.509Z,17.71
2017-06-23T04:20:46.155Z,17.72
2017-06-23T04:21:46.761Z,17.67
2017-06-23T04:22:47.430Z,17.72
2017-06-23T04:23:48.085Z,17.67
2017-06-23T04:24:48.706Z,17.64
2017-06-23T04:25:49.359Z,17.74
2017-06-23T04:26:49.986Z,17.70
2017-06-23T04:27:50.643Z,17.70
2017-06-23T04:28:51.265Z,17.57
2017-06-23T04:29:51.883Z,17.60
2017-06-23T04:30:52.508Z,17.63
2017-06-23T04:31:53.126Z,17.56
2017-06-23T04:32:53.802Z,17.56
2017-06-23T04:33:54.420Z,17.60
2017-06-23T04:34:55.044Z,17.65
2017-06-23T04:35:55.662Z,17.63
2017-06-23T04:36:56.283Z,17.65
2017-06-23T04:37:56.987Z,17.60
2017-06-23T04:38:57.607Z,17.60
2017-06-23T04:39:58.225Z,17.59
2017-06-23T04:40:58.850Z,17.60
2017-06-23T04:41:59.468Z,17.46
2017-06-23T04:43:00.138Z,17.54
2017-06-23T04:44:00.764Z,17.46
2017-06-23T04:45:01.380Z,17.48
2017-06-23T04:46:02.027Z,17.46
2017-06-23T04:47:02.663Z,17.44
2017-06-23T04:48:03.319Z,17.48
2017-06-23T04:49:03.940Z,17.45
2017-06-23T04:50:04.559Z,17.48
2017-06-23T04:51:05.178Z,17.52
2017-06-23T04:52:05.799Z,17.63
2017-06-23T04:53:06.442Z,17.56
2017-06-23T04:54:07.080Z,17.68
2017-06-23T04:55:07.716Z,17.63
2017-06-23T04:56:08.345Z,17.68
2017-06-23T04:57:08.954Z,17.72
2017-06-23T04:58:09.623Z,17.70
2017-06-23T04:59:10.243Z,17.60
2017-06-23T05:00:10.863Z,17.67
2017-06-23T05:01:11.482Z,17.54
2017-06-23T05:02:12.101Z,17.57
2017-06-23T05:03:12.771Z,17.60
2017-06-23T05:04:13.389Z,17.51
2017-06-23T05:05:14.011Z,17.56
2017-06-23T05:06:14.631Z,17.52
2017-06-23T05:07:15.250Z,17.48
2017-06-23T05:08:15.919Z,17.42
2017-06-23T05:09:16.539Z,17.46
2017-06-23T05:10:17.161Z,17.51
2017-06-23T05:11:17.781Z,17.56
2017-06-23T05:12:18.405Z,17.56
2017-06-23T05:13:19.078Z,17.71
2017-06-23T05:14:19.738Z,17.70
2017-06-23T05:15:20.356Z,17.68
2017-06-23T05:16:20.976Z,17.67
2017-06-23T05:17:21.593Z,17.68
2017-06-23T05:18:22.262Z,17.68
2017-06-23T05:19:22.911Z,17.68
2017-06-23T05:20:23.515Z,17.63
2017-06-23T05:21:24.134Z,17.67
2017-06-23T05:22:24.756Z,17.64
2017-06-23T05:23:25.427Z,17.60
2017-06-23T05:24:26.080Z,17.63
2017-06-23T05:25:26.699Z,17.52
2017-06-23T05:26:27.325Z,17.59
2017-06-23T05:27:27.943Z,17.46
2017-06-23T05:28:28.642Z,17.56
2017-06-23T05:29:29.246Z,17.57
2017-06-23T05:30:29.892Z,17.64
2017-06-23T05:31:30.498Z,17.65
2017-06-23T05:32:31.147Z,17.64
2017-06-23T05:33:31.801Z,17.59
2017-06-23T05:34:32.422Z,17.67
2017-06-23T05:35:33.040Z,17.70
2017-06-23T05:36:33.673Z,17.67
2017-06-23T05:37:34.291Z,17.65
2017-06-23T05:38:34.965Z,17.85
2017-06-23T05:39:35.588Z,17.82
2017-06-23T05:40:36.209Z,17.94
2017-06-23T05:41:36.869Z,17.92
2017-06-23T05:42:37.489Z,17.97
2017-06-23T05:43:38.160Z,17.94
2017-06-23T05:44:38.782Z,17.95
2017-06-23T05:45:39.410Z,18.00
2017-06-23T05:46:40.029Z,18.13
2017-06-23T05:47:40.650Z,18.13
2017-06-23T05:48:41.355Z,18.08
2017-06-23T05:49:41.979Z,18.05
2017-06-23T05:50:42.599Z,18.10
2017-06-23T05:51:43.221Z,18.13
2017-06-23T05:52:43.855Z,18.22
2017-06-23T05:53:44.551Z,18.23
2017-06-23T05:54:45.173Z,18.38
2017-06-23T05:55:45.794Z,18.41
2017-06-23T05:56:46.417Z,18.43
2017-06-23T05:57:47.040Z,18.43
2017-06-23T05:58:47.713Z,18.53
2017-06-23T05:59:48.335Z,18.45
2017-06-23T06:00:48.960Z,18.49
2017-06-23T06:01:49.581Z,18.59
2017-06-23T06:02:50.236Z,18.63
2017-06-23T06:03:50.918Z,18.65
2017-06-23T06:04:51.575Z,18.73
2017-06-23T06:05:52.204Z,18.71
2017-06-23T06:06:52.827Z,18.77
2017-06-23T06:07:53.448Z,18.77
2017-06-23T06:08:54.145Z,18.80
2017-06-23T06:09:54.755Z,18.78
2017-06-23T06:10:55.415Z,18.89
2017-06-23T06:11:56.037Z,18.89
2017-06-23T06:12:56.665Z,18.90
2017-06-23T06:13:57.335Z,18.93
2017-06-23T06:14:57.963Z,18.88
2017-06-23T06:15:58.621Z,18.93
2017-06-23T06:16:59.249Z,18.95
2017-06-23T06:17:59.869Z,18.92
2017-06-23T06:19:00.541Z,18.90
2017-06-23T06:20:01.161Z,18.86
2017-06-23T06:21:01.818Z,18.86
2017-06-23T06:22:02.471Z,18.92
2017-06-23T06:23:03.079Z,18.92
2017-06-23T06:24:03.750Z,18.81
2017-06-23T06:25:04.408Z,18.95
2017-06-23T06:26:05.093Z,18.95
2017-06-23T06:27:05.716Z,18.95
2017-06-23T06:28:06.325Z,18.92
2017-06-23T06:29:07.022Z,18.92
2017-06-23T06:30:07.658Z,18.98
2017-06-23T06:31:08.268Z,18.99
2017-06-23T06:32:08.915Z,19.00
2017-06-23T06:33:09.525Z,18.95
2017-06-23T06:34:10.223Z,19.02
2017-06-23T06:35:10.829Z,18.90
2017-06-23T06:36:11.456Z,18.88
2017-06-23T06:37:12.077Z,18.88
2017-06-23T06:38:12.706Z,18.80
2017-06-23T06:39:13.326Z,18.92
2017-06-23T06:40:13.953Z,18.92
2017-06-23T06:41:14.573Z,18.89
2017-06-23T06:42:15.194Z,18.96
2017-06-23T06:43:15.817Z,18.96
2017-06-23T06:44:16.495Z,18.96
2017-06-23T06:45:17.116Z,18.98
2017-06-23T06:46:17.737Z,18.90
2017-06-23T06:47:18.361Z,18.88
2017-06-23T06:48:18.987Z,19.00
2017-06-23T06:49:19.658Z,18.88
2017-06-23T06:50:20.282Z,18.93
2017-06-23T06:51:20.903Z,18.98
2017-06-23T06:52:21.530Z,18.98
2017-06-23T06:53:22.153Z,19.00
2017-06-23T06:54:22.826Z,18.96
2017-06-23T06:55:23.450Z,19.02
2017-06-23T06:56:24.074Z,19.04
2017-06-23T06:57:24.726Z,19.08
2017-06-23T06:58:25.380Z,19.02
2017-06-23T06:59:26.084Z,19.12
2017-06-23T07:00:26.692Z,19.15
2017-06-23T07:01:27.312Z,19.18
2017-06-23T07:02:27.935Z,19.34
2017-06-23T07:03:28.558Z,19.31
2017-06-23T07:04:29.231Z,19.27
2017-06-23T07:05:29.885Z,19.24
2017-06-23T07:06:30.491Z,19.34
2017-06-23T07:07:31.115Z,19.31
2017-06-23T07:08:31.743Z,19.39
2017-06-23T07:09:32.438Z,19.47
2017-06-23T07:10:33.094Z,19.48
2017-06-23T07:11:33.718Z,19.55
2017-06-23T07:12:34.341Z,19.56
2017-06-23T07:13:34.974Z,19.52
2017-06-23T07:14:35.639Z,19.64
2017-06-23T07:15:36.272Z,19.64
2017-06-23T07:16:36.928Z,19.77
2017-06-23T07:17:37.556Z,19.88
2017-06-23T07:18:38.176Z,19.82
2017-06-23T07:19:38.850Z,19.77
2017-06-23T07:20:39.473Z,19.91
2017-06-23T07:21:40.095Z,19.84
2017-06-23T07:22:40.717Z,19.84
2017-06-23T07:23:41.340Z,19.84
2017-06-23T07:24:42.017Z,19.79
2017-06-23T07:25:42.641Z,19.86
2017-06-23T07:26:43.298Z,19.82
2017-06-23T07:27:43.922Z,19.88
2017-06-23T07:28:44.546Z,19.84
2017-06-23T07:29:45.224Z,19.85
2017-06-23T07:30:45.845Z,19.86
2017-06-23T07:31:46.468Z,19.82
2017-06-23T07:32:47.127Z,19.92
2017-06-23T07:33:47.780Z,19.92
2017-06-23T07:34:48.438Z,19.96
2017-06-23T07:35:49.064Z,19.92
2017-06-23T07:36:49.687Z,20.03
2017-06-23T07:37:50.311Z,20.10
2017-06-23T07:38:50.967Z,20.09
2017-06-23T07:39:51.640Z,20.04
2017-06-23T07:40:52.264Z,20.06
2017-06-23T07:41:52.886Z,19.99
2017-06-23T07:42:53.512Z,20.06
2017-06-23T07:43:54.134Z,20.06
2017-06-23T07:44:54.810Z,20.16
2017-06-23T07:45:55.435Z,20.21
2017-06-23T07:46:56.086Z,20.24
2017-06-23T07:47:56.687Z,20.31
2017-06-23T07:48:57.316Z,20.36
2017-06-23T07:49:57.990Z,20.31
2017-06-23T07:50:58.644Z,20.40
2017-06-23T07:51:59.268Z,20.32
2017-06-23T07:52:59.892Z,20.37
2017-06-23T07:54:00.515Z,20.50
2017-06-23T07:55:01.221Z,20.50
2017-06-23T07:56:01.844Z,20.60
2017-06-23T07:57:02.470Z,20.72
2017-06-23T07:58:03.132Z,20.75
2017-06-23T07:59:03.786Z,20.78
2017-06-23T08:00:04.471Z,20.69
2017-06-23T08:01:05.080Z,20.70
2017-06-23T08:02:05.735Z,20.72
2017-06-23T08:03:06.349Z,20.75
2017-06-23T08:04:06.970Z,20.75
2017-06-23T08:05:07.644Z,20.81
2017-06-23T08:06:08.269Z,20.74
2017-06-23T08:07:08.926Z,20.70
2017-06-23T08:08:09.583Z,20.72
2017-06-23T08:09:10.233Z,20.74
2017-06-23T08:10:10.893Z,20.80
2017-06-23T08:11:11.553Z,20.70
2017-06-23T08:12:12.186Z,20.72
2017-06-23T08:13:12.828Z,20.74
2017-06-23T08:14:13.459Z,20.77
2017-06-23T08:15:14.119Z,20.84
2017-06-23T08:16:14.742Z,20.93
2017-06-23T08:17:15.365Z,21.02
2017-06-23T08:18:15.993Z,21.07
2017-06-23T08:19:16.616Z,21.07
2017-06-23T08:20:17.295Z,21.11
2017-06-23T08:21:17.918Z,21.27
2017-06-23T08:22:18.577Z,21.30
2017-06-23T08:23:19.200Z,21.40
2017-06-23T08:24:19.823Z,21.40
2017-06-23T08:25:20.498Z,21.39
2017-06-23T08:26:21.122Z,21.40
2017-06-23T08:27:21.752Z,21.36
2017-06-23T08:28:22.373Z,21.33
2017-06-23T08:29:23.002Z,21.29
2017-06-23T08:30:23.683Z,21.35
2017-06-23T08:31:24.302Z,21.50
2017-06-23T08:32:24.928Z,21.54
2017-06-23T08:33:25.549Z,21.66
2017-06-23T08:34:26.175Z,21.72
2017-06-23T08:35:26.850Z,21.64
2017-06-23T08:36:27.471Z,21.66
2017-06-23T08:37:28.129Z,21.77
2017-06-23T08:38:28.759Z,21.83
2017-06-23T08:39:29.388Z,21.89
2017-06-23T08:40:30.097Z,21.95
2017-06-23T08:41:30.721Z,21.95
2017-06-23T08:42:31.347Z,22.07
2017-06-23T08:43:31.974Z,22.18
2017-06-23T08:44:32.597Z,22.23
2017-06-23T08:45:33.271Z,22.29
2017-06-23T08:46:33.930Z,22.26
2017-06-23T08:47:34.615Z,22.33
2017-06-23T08:48:35.259Z,22.33
2017-06-23T08:49:35.896Z,22.18
2017-06-23T08:50:36.606Z,22.23
2017-06-23T08:51:37.230Z,22.10
2017-06-23T08:52:37.857Z,22.18
2017-06-23T08:53:38.482Z,22.15
2017-06-23T08:54:39.107Z,22.18
2017-06-23T08:55:39.783Z,22.25
2017-06-23T08:56:40.408Z,22.18
2017-06-23T08:57:41.058Z,22.28
2017-06-23T08:58:41.670Z,22.33
2017-06-23T08:59:42.295Z,22.35
2017-06-23T09:00:42.969Z,22.47
2017-06-23T09:01:43.619Z,22.55
2017-06-23T09:02:44.235Z,22.68
2017-06-23T09:03:44.857Z,22.62
2017-06-23T09:04:45.481Z,22.55
2017-06-23T09:05:46.183Z,22.55
2017-06-23T09:06:46.797Z,22.53
2017-06-23T09:07:47.427Z,22.54
2017-06-23T09:08:48.056Z,22.59
2017-06-23T09:09:48.678Z,22.54
2017-06-23T09:10:49.353Z,22.65
2017-06-23T09:11:49.985Z,22.70
2017-06-23T09:12:50.641Z,22.80
2017-06-23T09:13:51.266Z,22.83
2017-06-23T09:14:51.892Z,22.94
2017-06-23T09:15:52.569Z,23.00
2017-06-23T09:16:53.194Z,23.08
2017-06-23T09:17:53.819Z,22.99
2017-06-23T09:18:54.445Z,22.94
2017-06-23T09:19:55.070Z,22.75
2017-06-23T09:20:55.747Z,22.59
2017-06-23T09:21:56.374Z,22.65
2017-06-23T09:22:56.999Z,22.73
2017-06-23T09:23:57.625Z,22.83
2017-06-23T09:24:58.254Z,22.83
2017-06-23T09:25:58.955Z,22.81
2017-06-23T09:26:59.616Z,22.84
2017-06-23T09:28:00.276Z,22.80
2017-06-23T09:29:00.902Z,22.69
2017-06-23T09:30:01.526Z,22.47
2017-06-23T09:31:02.231Z,22.39
2017-06-23T09:32:02.844Z,22.26
2017-06-23T09:33:03.467Z,22.04
2017-06-23T09:34:04.123Z,22.07
2017-06-23T09:35:04.778Z,22.06
2017-06-23T09:36:05.453Z,21.93
2017-06-23T09:37:06.079Z,21.83
2017-06-23T09:38:06.705Z,21.79
2017-06-23T09:39:07.330Z,21.89
2017-06-23T09:40:07.954Z,21.79
2017-06-23T09:41:08.632Z,21.75
2017-06-23T09:42:09.256Z,21.79
2017-06-23T09:43:09.880Z,21.85
2017-06-23T09:44:10.504Z,22.00
2017-06-23T09:45:11.130Z,21.98
2017-06-23T09:46:11.842Z,21.91
2017-06-23T09:47:12.468Z,21.77
2017-06-23T09:48:13.095Z,21.70
2017-06-23T09:49:13.720Z,21.58
2017-06-23T09:50:14.351Z,21.52
2017-06-23T09:51:15.027Z,21.57
2017-06-23T09:52:15.687Z,21.48
2017-06-23T09:53:16.314Z,21.50
2017-06-23T09:54:16.939Z,21.50
2017-06-23T09:55:17.565Z,21.48
2017-06-23T09:56:18.271Z,21.48
2017-06-23T09:57:18.900Z,21.51
2017-06-23T09:58:19.527Z,21.48
2017-06-23T09:59:20.150Z,21.50
2017-06-23T10:00:20.777Z,21.43
2017-06-23T10:01:21.477Z,21.39
2017-06-23T10:02:22.089Z,21.29
2017-06-23T10:03:22.712Z,21.29
2017-06-23T10:04:23.337Z,21.24
2017-06-23T10:05:23.964Z,21.18
2017-06-23T10:06:24.661Z,21.07
2017-06-23T10:07:25.275Z,21.07
2017-06-23T10:08:25.900Z,21.05
2017-06-23T10:09:26.531Z,21.15
2017-06-23T10:10:27.153Z,21.14
2017-06-23T10:11:27.835Z,21.21
2017-06-23T10:12:28.462Z,21.27
2017-06-23T10:13:29.089Z,21.29
2017-06-23T10:14:29.712Z,21.35
2017-06-23T10:15:30.340Z,21.39
2017-06-23T10:16:31.019Z,21.32
2017-06-23T10:17:31.638Z,21.50
2017-06-23T10:18:32.265Z,21.35
2017-06-23T10:19:32.888Z,21.40
2017-06-23T10:20:33.519Z,21.40
2017-06-23T10:21:34.197Z,21.33
2017-06-23T10:22:34.819Z,21.46
2017-06-23T10:23:35.504Z,21.37
2017-06-23T10:24:36.114Z,21.35
2017-06-23T10:25:36.774Z,21.46
2017-06-23T10:26:37.448Z,21.42
2017-06-23T10:27:38.072Z,21.36
2017-06-23T10:28:38.724Z,21.46
2017-06-23T10:29:39.367Z,21.51
2017-06-23T10:30:39.977Z,21.58
2017-06-23T10:31:40.653Z,21.66
2017-06-23T10:32:41.277Z,21.70
2017-06-23T10:33:41.912Z,21.75
2017-06-23T10:34:42.562Z,21.92
2017-06-23T10:35:43.175Z,22.02
2017-06-23T10:36:43.855Z,22.17
2017-06-23T10:37:44.485Z,22.18
2017-06-23T10:38:45.107Z,22.33
2017-06-23T10:39:45.731Z,22.36
2017-06-23T10:40:46.357Z,22.36
2017-06-23T10:41:47.032Z,22.43
2017-06-23T10:42:47.657Z,22.33
2017-06-23T10:43:48.282Z,22.38
2017-06-23T10:44:48.907Z,22.35
2017-06-23T10:45:49.596Z,22.43
2017-06-23T10:46:50.258Z,22.43
2017-06-23T10:47:50.887Z,22.47
2017-06-23T10:48:51.510Z,22.57
2017-06-23T10:49:52.172Z,22.54
2017-06-23T10:50:52.798Z,22.57
2017-06-23T10:51:53.471Z,22.63
2017-06-23T10:52:54.099Z,22.80
2017-06-23T10:53:54.726Z,22.75
2017-06-23T10:54:55.357Z,22.85
2017-06-23T10:55:55.984Z,22.70
2017-06-23T10:56:56.657Z,22.70
2017-06-23T10:57:57.283Z,22.78
2017-06-23T10:58:57.907Z,22.75
2017-06-23T10:59:58.532Z,22.85
2017-06-23T11:00:59.157Z,22.93
2017-06-23T11:01:59.833Z,23.03
2017-06-23T11:03:00.461Z,23.21
2017-06-23T11:04:01.086Z,23.36
2017-06-23T11:05:01.714Z,23.36
2017-06-23T11:06:02.340Z,23.44
2017-06-23T11:07:03.017Z,23.51
2017-06-23T11:08:03.641Z,23.58
2017-06-23T11:09:04.300Z,23.59
2017-06-23T11:10:04.927Z,23.50
2017-06-23T11:11:05.556Z,23.48
2017-06-23T11:12:06.231Z,23.50
2017-06-23T11:13:06.858Z,23.41
2017-06-23T11:14:07.484Z,23.43
2017-06-23T11:15:08.114Z,23.48
2017-06-23T11:16:08.772Z,23.59
2017-06-23T11:17:09.480Z,23.62
2017-06-23T11:18:10.107Z,23.77
2017-06-23T11:19:10.743Z,23.81
2017-06-23T11:20:11.370Z,23.95
2017-06-23T11:21:11.995Z,23.99
2017-06-23T11:22:12.673Z,24.02
2017-06-23T11:23:13.334Z,23.98
2017-06-23T11:24:13.964Z,23.99
2017-06-23T11:25:14.587Z,24.02
2017-06-23T11:26:15.214Z,24.21
2017-06-23T11:27:15.891Z,24.38
2017-06-23T11:28:16.517Z,24.51
2017-06-23T11:29:17.149Z,24.61
2017-06-23T11:30:17.779Z,24.77
2017-06-23T11:31:18.403Z,24.73
2017-06-23T11:32:19.080Z,24.70
2017-06-23T11:33:19.707Z,24.73
2017-06-23T11:34:20.334Z,24.91
2017-06-23T11:35:20.987Z,24.98
2017-06-23T11:36:21.628Z,24.93
2017-06-23T11:37:22.289Z,24.93
2017-06-23T11:38:22.915Z,25.01
2017-06-23T11:39:23.543Z,25.08
2017-06-23T11:40:24.171Z,25.17
2017-06-23T11:41:24.835Z,25.04
2017-06-23T11:42:25.512Z,25.08
2017-06-23T11:43:26.170Z,24.99
2017-06-23T11:44:26.782Z,24.81
2017-06-23T11:45:27.459Z,25.01
2017-06-23T11:46:28.139Z,25.21
2017-06-23T11:47:28.764Z,25.29
2017-06-23T11:48:29.394Z,25.36
2017-06-23T11:49:30.030Z,25.40
2017-06-23T11:50:30.707Z,25.43
2017-06-23T11:51:31.373Z,25.47
2017-06-23T11:52:31.999Z,25.44
2017-06-23T11:53:32.631Z,25.31
2017-06-23T11:54:33.257Z,25.13
2017-06-23T11:55:33.935Z,25.03
2017-06-23T11:56:34.615Z,24.92
2017-06-23T11:57:35.242Z,24.96
2017-06-23T11:58:35.872Z,24.98
2017-06-23T11:59:36.499Z,24.95
2017-06-23T12:00:37.188Z,25.07
2017-06-23T12:01:37.849Z,25.14
2017-06-23T12:02:38.527Z,25.26
2017-06-23T12:03:39.175Z,25.25
2017-06-23T12:04:39.787Z,25.14
2017-06-23T12:05:40.466Z,25.04
2017-06-23T12:06:41.122Z,24.96
2017-06-23T12:07:41.737Z,25.08
2017-06-23T12:08:42.362Z,25.17
2017-06-23T12:09:42.992Z,25.26
2017-06-23T12:10:43.669Z,25.28
2017-06-23T12:11:44.309Z,25.40
2017-06-23T12:12:44.931Z,25.44
2017-06-23T12:13:45.561Z,25.51
2017-06-23T12:14:46.223Z,25.47
2017-06-23T12:15:46.935Z,25.46
2017-06-23T12:16:47.612Z,25.58
2017-06-23T12:17:48.264Z,25.59
2017-06-23T12:18:48.892Z,25.77
2017-06-23T12:19:49.522Z,25.80
2017-06-23T12:20:50.204Z,25.98
2017-06-23T12:21:50.829Z,25.95
2017-06-23T12:22:51.458Z,26.00
2017-06-23T12:23:52.137Z,26.09
2017-06-23T12:24:52.766Z,26.09
2017-06-23T12:25:53.402Z,26.18
2017-06-23T12:26:54.033Z,26.13
2017-06-23T12:27:54.695Z,26.06
2017-06-23T12:28:55.373Z,25.84
2017-06-23T12:29:56.004Z,25.70
2017-06-23T12:30:56.633Z,25.41
2017-06-23T12:31:57.263Z,25.29
2017-06-23T12:32:57.923Z,25.07
2017-06-23T12:33:58.632Z,25.08
2017-06-23T12:34:59.245Z,25.07
2017-06-23T12:35:59.899Z,25.01
2017-06-23T12:37:00.513Z,24.81
2017-06-23T12:38:01.169Z,24.77
2017-06-23T12:39:02.033Z,24.61
2017-06-23T12:40:02.664Z,24.65
2017-06-23T12:41:03.289Z,24.68
2017-06-23T12:42:03.920Z,24.69
2017-06-23T12:43:04.551Z,24.81
2017-06-23T12:44:05.227Z,24.98
2017-06-23T12:45:05.853Z,25.22
2017-06-23T12:46:06.481Z,25.44
2017-06-23T12:47:07.112Z,25.60
2017-06-23T12:48:07.738Z,25.70
2017-06-23T12:49:08.470Z,25.73
2017-06-23T12:50:09.095Z,25.68
2017-06-23T12:51:09.750Z,25.83
2017-06-23T12:52:10.365Z,25.75
2017-06-23T12:53:10.992Z,25.73
2017-06-23T12:54:11.673Z,25.77
2017-06-23T12:55:12.333Z,25.80
2017-06-23T12:56:13.018Z,25.83
2017-06-23T12:57:13.633Z,25.80
2017-06-23T12:58:14.290Z,25.93
2017-06-23T12:59:14.955Z,25.99
2017-06-23T13:00:15.609Z,26.13